This is the latest recevied weather packets stored in our database for station/object G1SCQ. If no packets are shown the sender has not sent any weather packets the latest 10 day(s).
| Time | Temp. | Humidity | Pressure | Rain* | Wind** | Luminosity | Snow |
|---|---|---|---|---|---|---|---|
| 1777738685 | 20° C | 55% | 1012.9 hPa | 0 mm | - | 280 W/m² | - |
| 1777738145 | 20° C | 53% | 1013 hPa | 0 mm | - | 356 W/m² | - |
| 1777737605 | 19.44° C | 57% | 1013.4 hPa | 0 mm | - | 166 W/m² | - |
| 1777737245 | 20° C | 55% | 1013.2 hPa | 0 mm | - | 203 W/m² | - |
| 1777736705 | 20.56° C | 53% | 1013 hPa | 0 mm | - | 416 W/m² | - |
| 1777736165 | 19.44° C | 57% | 1013.4 hPa | 0 mm | - | 335 W/m² | - |
| 1777735625 | 18.89° C | 60% | 1013.5 hPa | 0 mm | - | 212 W/m² | - |
| 1777735085 | 18.89° C | 60% | 1013.6 hPa | 0 mm | - | 267 W/m² | - |
| 1777734545 | 20° C | 59% | 1013.7 hPa | 0 mm | - | 396 W/m² | - |
| 1777734005 | 20° C | 57% | 1013.8 hPa | 0 mm | - | 531 W/m² | - |
| 1777733645 | 20° C | 56% | 1013.8 hPa | 0 mm | - | 528 W/m² | - |
| 1777733105 | 19.44° C | 57% | 1013.9 hPa | 0 mm | - | 489 W/m² | - |
| 1777732565 | 18.89° C | 60% | 1014.1 hPa | 0 mm | - | 377 W/m² | - |
| 1777732025 | 19.44° C | 59% | 1014.1 hPa | 0 mm | - | 517 W/m² | - |
| 1777731485 | 19.44° C | 57% | 1014.4 hPa | 0 mm | - | 525 W/m² | - |
| 1777730945 | 20° C | 57% | 1014.6 hPa | 0 mm | - | 540 W/m² | - |
| 1777730405 | 20° C | 56% | 1014.3 hPa | 0 mm | - | 561 W/m² | - |
| 1777730045 | 19.44° C | 57% | 1014.5 hPa | 0 mm | - | 569 W/m² | - |
| 1777729505 | 19.44° C | 58% | 1014.6 hPa | 0 mm | - | 575 W/m² | - |
| 1777728965 | 18.89° C | 59% | 1015 hPa | 0 mm | - | 590 W/m² | - |
| 1777728425 | 19.44° C | 58% | 1014.8 hPa | 0 mm | - | 587 W/m² | - |
| 1777727885 | 18.89° C | 57% | 1015 hPa | 0 mm | - | 614 W/m² | - |
| 1777727345 | 18.89° C | 59% | 1015.2 hPa | 0 mm | - | 619 W/m² | - |
| 1777726805 | 18.89° C | 59% | 1015.1 hPa | 0 mm | - | 606 W/m² | - |
| 1777726445 | 18.89° C | 61% | 1015 hPa | 0 mm | - | 618 W/m² | - |
* Rain latest hour (hover to see other rain measurements)
** Current wind speed in m/s (hover to see current wind gust speed)